Notice: Undefined index: language in D:\xampp\htdocs\vam\index.php on line 25
Open Air Virtual

 METAR AND TAF INFORMATION
METAR FOR EGNJ
ADDS - METARS form results

(0424 UTC 12 December 2019)
Data provider http://aviationweather.gov/metar/data/
 
METAR text: EGNJ 120420Z AUTO 21013KT 9999 NCD 01/01 Q0996
Conditions at: EGNJ (HUMBERSIDE , GB) observed 0420 UTC 12 December 2019
Temperature: 1.0°C (34°F)
Dewpoint: 1.0°C (34°F) [RH = 100%]
Pressure (altimeter): 29.41 inches Hg (996.0 mb)
Winds: from the SSW (210 degrees) at 15 MPH (13 knots; 6.7 m/s)
Visibility: 6 or more miles (10+ km)
Ceiling: at least 12,000 feet AGL
Clouds: sky clear below 12,000 feet AGL
Weather: no significant weather observed at this time

METAR text: EGNJ 120350Z AUTO 21013KT 9999 NCD 01/01 Q0997
Conditions at: EGNJ (HUMBERSIDE , GB) observed 0350 UTC 12 December 2019
Temperature: 1.0°C (34°F)
Dewpoint: 1.0°C (34°F) [RH = 100%]
Pressure (altimeter): 29.44 inches Hg (997.0 mb)
Winds: from the SSW (210 degrees) at 15 MPH (13 knots; 6.7 m/s)
Visibility: 6 or more miles (10+ km)
Ceiling: at least 12,000 feet AGL
Clouds: sky clear below 12,000 feet AGL
Weather: no significant weather observed at this time

Forecast for: EGNJ (HUMBERSIDE , GB)
Text: TAF EGNJ 120155Z 1203/1212 21008KT 9999 SCT030
Forecast period: 0300 to 1200 UTC 12 December 2019
Forecast type: FROM: standard forecast or significant change
Winds: from the SSW (210 degrees) at 9 MPH (8 knots; 4.1 m/s)
Visibility: 6 or more miles 10+ km)
Ceiling: at least 12,000 feet AGL
Clouds: scattered clouds at 3000 feet AGL
Weather: no significant weather forecast for this period
Text: PROB30 1203/1209 9000
Forecast period: 0300 to 0900 UTC 12 December 2019
Forecast type: PROBABLE: 30 percent likelihood of the following during this time
Visibility: 6 miles (9 km)
Ceiling: unknown
Clouds: missing
Weather: no significant weather forecast for this period

 AIRPORT MAP

 RUNWAY INFORMATION
Runway 03 Runway length 7205 ft Runway width 148 ft
Runway elevation 121 ft Runway displaced threshold 0 ft Runway heading 22
Runway 21 Runway length 7205 ft Runway width 148 ft
Runway elevation 74 ft Runway displaced threshold 806 ft Runway heading 202
Runway 09 Runway length 3458 ft Runway width 98 ft
Runway elevation 87 ft Runway displaced threshold 0 ft Runway heading 82
Runway 27 Runway length 3458 ft Runway width 98 ft
Runway elevation 85 ft Runway displaced threshold 647 ft Runway heading 262

 AIRPORT FREQUENCIES
Type APP Name APP Frequency 119.125 MHZ
Type ATIS Name INFO Frequency 124.125 MHZ
Type TWR Name TWR Frequency 124.9 MHZ

 AIRPORT NEAR NAVIGATION AIDS



Powered by Virtual Airlines Manager [v2.6.2]